sensor_id;sensor_type;location;lat;lon;timestamp;P1;durP1;ratioP1;P2;durP2;ratioP2
75885;SDS011;64561;44.018;10.144;2023-02-01T00:00:32;33.03;;;20.40;;
75885;SDS011;64561;44.018;10.144;2023-02-01T00:03:00;35.50;;;21.15;;
75885;SDS011;64561;44.018;10.144;2023-02-01T00:05:27;33.60;;;19.10;;
75885;SDS011;64561;44.018;10.144;2023-02-01T00:07:54;36.83;;;21.75;;
75885;SDS011;64561;44.018;10.144;2023-02-01T00:10:21;36.50;;;18.88;;
75885;SDS011;64561;44.018;10.144;2023-02-01T00:12:48;36.90;;;20.85;;
75885;SDS011;64561;44.018;10.144;2023-02-01T00:15:15;29.60;;;17.20;;
75885;SDS011;64561;44.018;10.144;2023-02-01T00:17:44;27.60;;;17.40;;
75885;SDS011;64561;44.018;10.144;2023-02-01T00:20:11;32.20;;;17.73;;
75885;SDS011;64561;44.018;10.144;2023-02-01T00:22:38;24.95;;;15.07;;
75885;SDS011;64561;44.018;10.144;2023-02-01T00:25:05;28.60;;;14.93;;
75885;SDS011;64561;44.018;10.144;2023-02-01T00:27:32;27.67;;;15.70;;
75885;SDS011;64561;44.018;10.144;2023-02-01T00:29:59;20.80;;;12.30;;
75885;SDS011;64561;44.018;10.144;2023-02-01T00:32:26;18.88;;;10.45;;
75885;SDS011;64561;44.018;10.144;2023-02-01T00:34:53;21.83;;;10.30;;
75885;SDS011;64561;44.018;10.144;2023-02-01T00:37:19;17.40;;;9.73;;
75885;SDS011;64561;44.018;10.144;2023-02-01T00:39:46;16.02;;;9.15;;
75885;SDS011;64561;44.018;10.144;2023-02-01T00:42:13;18.63;;;10.07;;
75885;SDS011;64561;44.018;10.144;2023-02-01T00:44:40;14.43;;;9.02;;
75885;SDS011;64561;44.018;10.144;2023-02-01T00:47:07;15.57;;;9.55;;
75885;SDS011;64561;44.018;10.144;2023-02-01T00:49:34;19.60;;;8.65;;
75885;SDS011;64561;44.018;10.144;2023-02-01T00:52:01;15.15;;;7.85;;
75885;SDS011;64561;44.018;10.144;2023-02-01T00:54:28;10.15;;;6.43;;
75885;SDS011;64561;44.018;10.144;2023-02-01T00:56:54;14.90;;;7.00;;
75885;SDS011;64561;44.018;10.144;2023-02-01T00:59:21;10.63;;;6.82;;
75885;SDS011;64561;44.018;10.144;2023-02-01T01:01:48;12.93;;;6.90;;
75885;SDS011;64561;44.018;10.144;2023-02-01T01:04:15;9.88;;;5.65;;
75885;SDS011;64561;44.018;10.144;2023-02-01T01:06:42;13.65;;;6.28;;
75885;SDS011;64561;44.018;10.144;2023-02-01T01:09:08;11.23;;;5.25;;
75885;SDS011;64561;44.018;10.144;2023-02-01T01:11:36;11.10;;;4.55;;
75885;SDS011;64561;44.018;10.144;2023-02-01T01:14:05;9.07;;;5.35;;
75885;SDS011;64561;44.018;10.144;2023-02-01T01:16:34;10.15;;;4.75;;
75885;SDS011;64561;44.018;10.144;2023-02-01T01:19:02;8.88;;;5.15;;
75885;SDS011;64561;44.018;10.144;2023-02-01T01:21:30;12.93;;;5.40;;
75885;SDS011;64561;44.018;10.144;2023-02-01T01:23:57;9.80;;;5.40;;
75885;SDS011;64561;44.018;10.144;2023-02-01T01:26:25;9.20;;;5.47;;
75885;SDS011;64561;44.018;10.144;2023-02-01T01:28:54;8.95;;;5.43;;
75885;SDS011;64561;44.018;10.144;2023-02-01T01:31:24;12.30;;;5.82;;
75885;SDS011;64561;44.018;10.144;2023-02-01T01:33:52;8.50;;;5.07;;
75885;SDS011;64561;44.018;10.144;2023-02-01T01:36:20;8.65;;;4.60;;
75885;SDS011;64561;44.018;10.144;2023-02-01T01:38:48;9.32;;;5.45;;
75885;SDS011;64561;44.018;10.144;2023-02-01T01:41:17;12.38;;;5.22;;
75885;SDS011;64561;44.018;10.144;2023-02-01T01:46:22;6.78;;;3.97;;
75885;SDS011;64561;44.018;10.144;2023-02-01T01:48:53;5.30;;;3.40;;
75885;SDS011;64561;44.018;10.144;2023-02-01T01:51:30;9.52;;;4.82;;
75885;SDS011;64561;44.018;10.144;2023-02-01T01:54:00;6.28;;;3.80;;
75885;SDS011;64561;44.018;10.144;2023-02-01T01:56:36;9.68;;;4.70;;
75885;SDS011;64561;44.018;10.144;2023-02-01T01:59:02;8.95;;;4.57;;
75885;SDS011;64561;44.018;10.144;2023-02-01T02:01:31;6.80;;;4.28;;
75885;SDS011;64561;44.018;10.144;2023-02-01T02:03:58;7.18;;;3.83;;
75885;SDS011;64561;44.018;10.144;2023-02-01T02:06:33;6.78;;;3.78;;
75885;SDS011;64561;44.018;10.144;2023-02-01T02:09:02;7.72;;;4.38;;
75885;SDS011;64561;44.018;10.144;2023-02-01T02:11:32;6.68;;;4.05;;
75885;SDS011;64561;44.018;10.144;2023-02-01T02:13:59;9.13;;;4.57;;
75885;SDS011;64561;44.018;10.144;2023-02-01T02:39:04;14.23;;;7.85;;
75885;SDS011;64561;44.018;10.144;2023-02-01T02:50:34;21.67;;;11.13;;
75885;SDS011;64561;44.018;10.144;2023-02-01T02:56:42;13.77;;;8.73;;
75885;SDS011;64561;44.018;10.144;2023-02-01T02:59:28;19.00;;;10.98;;
75885;SDS011;64561;44.018;10.144;2023-02-01T03:02:15;18.67;;;10.77;;
75885;SDS011;64561;44.018;10.144;2023-02-01T03:05:02;17.63;;;9.57;;
75885;SDS011;64561;44.018;10.144;2023-02-01T03:10:17;15.38;;;8.98;;
75885;SDS011;64561;44.018;10.144;2023-02-01T03:13:11;19.42;;;10.07;;
75885;SDS011;64561;44.018;10.144;2023-02-01T03:15:43;16.48;;;9.85;;
75885;SDS011;64561;44.018;10.144;2023-02-01T03:18:26;19.50;;;9.88;;
75885;SDS011;64561;44.018;10.144;2023-02-01T03:20:59;17.60;;;10.48;;
75885;SDS011;64561;44.018;10.144;2023-02-01T03:23:31;14.40;;;9.10;;
75885;SDS011;64561;44.018;10.144;2023-02-01T03:26:01;18.45;;;9.25;;
75885;SDS011;64561;44.018;10.144;2023-02-01T03:28:30;15.43;;;8.27;;
75885;SDS011;64561;44.018;10.144;2023-02-01T03:31:01;16.75;;;9.50;;
75885;SDS011;64561;44.018;10.144;2023-02-01T03:33:29;16.25;;;9.35;;
75885;SDS011;64561;44.018;10.144;2023-02-01T03:36:02;22.42;;;10.93;;
75885;SDS011;64561;44.018;10.144;2023-02-01T03:38:40;17.40;;;9.48;;
75885;SDS011;64561;44.018;10.144;2023-02-01T03:43:45;19.92;;;8.85;;
75885;SDS011;64561;44.018;10.144;2023-02-01T03:46:20;20.50;;;10.60;;
75885;SDS011;64561;44.018;10.144;2023-02-01T03:49:00;16.10;;;11.25;;
75885;SDS011;64561;44.018;10.144;2023-02-01T03:51:33;18.50;;;10.60;;
75885;SDS011;64561;44.018;10.144;2023-02-01T03:54:04;17.25;;;9.90;;
75885;SDS011;64561;44.018;10.144;2023-02-01T03:56:36;18.33;;;10.48;;
75885;SDS011;64561;44.018;10.144;2023-02-01T03:59:05;18.15;;;9.77;;
75885;SDS011;64561;44.018;10.144;2023-02-01T04:01:34;20.42;;;10.20;;
75885;SDS011;64561;44.018;10.144;2023-02-01T04:04:01;20.42;;;11.25;;
75885;SDS011;64561;44.018;10.144;2023-02-01T04:06:28;19.23;;;10.48;;
75885;SDS011;64561;44.018;10.144;2023-02-01T04:08:59;24.75;;;12.35;;
75885;SDS011;64561;44.018;10.144;2023-02-01T04:11:26;21.75;;;11.20;;
75885;SDS011;64561;44.018;10.144;2023-02-01T04:13:53;30.23;;;11.45;;
75885;SDS011;64561;44.018;10.144;2023-02-01T04:16:20;25.08;;;12.18;;
75885;SDS011;64561;44.018;10.144;2023-02-01T04:18:47;16.88;;;11.23;;
75885;SDS011;64561;44.018;10.144;2023-02-01T04:21:14;20.25;;;11.65;;
75885;SDS011;64561;44.018;10.144;2023-02-01T04:23:41;21.55;;;9.60;;
75885;SDS011;64561;44.018;10.144;2023-02-01T04:26:08;20.45;;;10.73;;
75885;SDS011;64561;44.018;10.144;2023-02-01T04:28:35;19.48;;;10.55;;
75885;SDS011;64561;44.018;10.144;2023-02-01T04:31:02;16.55;;;9.63;;
75885;SDS011;64561;44.018;10.144;2023-02-01T04:33:29;21.90;;;10.23;;
75885;SDS011;64561;44.018;10.144;2023-02-01T04:35:56;19.98;;;10.07;;
75885;SDS011;64561;44.018;10.144;2023-02-01T04:38:23;21.67;;;10.70;;
75885;SDS011;64561;44.018;10.144;2023-02-01T04:40:49;20.77;;;11.68;;
75885;SDS011;64561;44.018;10.144;2023-02-01T04:43:17;22.52;;;12.23;;
75885;SDS011;64561;44.018;10.144;2023-02-01T04:45:47;24.27;;;13.50;;
75885;SDS011;64561;44.018;10.144;2023-02-01T04:48:16;21.92;;;12.80;;
75885;SDS011;64561;44.018;10.144;2023-02-01T04:50:44;22.27;;;12.73;;
75885;SDS011;64561;44.018;10.144;2023-02-01T04:53:15;23.02;;;13.55;;
75885;SDS011;64561;44.018;10.144;2023-02-01T04:55:42;26.45;;;13.75;;
75885;SDS011;64561;44.018;10.144;2023-02-01T04:58:10;29.48;;;15.15;;
75885;SDS011;64561;44.018;10.144;2023-02-01T05:00:37;24.95;;;12.98;;
75885;SDS011;64561;44.018;10.144;2023-02-01T05:03:04;24.30;;;13.05;;
75885;SDS011;64561;44.018;10.144;2023-02-01T05:05:31;21.60;;;12.13;;
75885;SDS011;64561;44.018;10.144;2023-02-01T05:07:58;20.05;;;12.38;;
75885;SDS011;64561;44.018;10.144;2023-02-01T05:10:24;27.05;;;12.93;;
75885;SDS011;64561;44.018;10.144;2023-02-01T05:12:51;25.88;;;12.73;;
75885;SDS011;64561;44.018;10.144;2023-02-01T05:15:36;21.30;;;12.68;;
75885;SDS011;64561;44.018;10.144;2023-02-01T05:18:03;23.52;;;12.25;;
75885;SDS011;64561;44.018;10.144;2023-02-01T05:20:30;24.63;;;11.82;;
75885;SDS011;64561;44.018;10.144;2023-02-01T05:22:57;21.67;;;11.27;;
75885;SDS011;64561;44.018;10.144;2023-02-01T05:25:24;22.58;;;12.13;;
75885;SDS011;64561;44.018;10.144;2023-02-01T05:27:51;20.75;;;11.85;;
75885;SDS011;64561;44.018;10.144;2023-02-01T05:30:17;23.77;;;11.88;;
75885;SDS011;64561;44.018;10.144;2023-02-01T05:32:44;17.02;;;10.80;;
75885;SDS011;64561;44.018;10.144;2023-02-01T05:35:11;19.48;;;11.88;;
75885;SDS011;64561;44.018;10.144;2023-02-01T05:37:38;17.13;;;9.88;;
75885;SDS011;64561;44.018;10.144;2023-02-01T05:40:05;17.70;;;9.35;;
75885;SDS011;64561;44.018;10.144;2023-02-01T05:42:32;14.63;;;9.07;;
75885;SDS011;64561;44.018;10.144;2023-02-01T05:44:59;23.55;;;10.88;;
75885;SDS011;64561;44.018;10.144;2023-02-01T05:47:26;19.17;;;10.55;;
75885;SDS011;64561;44.018;10.144;2023-02-01T05:49:52;19.70;;;9.35;;
75885;SDS011;64561;44.018;10.144;2023-02-01T05:52:19;23.38;;;9.65;;
75885;SDS011;64561;44.018;10.144;2023-02-01T05:54:46;19.45;;;10.95;;
75885;SDS011;64561;44.018;10.144;2023-02-01T05:57:14;20.00;;;9.48;;
75885;SDS011;64561;44.018;10.144;2023-02-01T05:59:42;16.48;;;11.15;;
75885;SDS011;64561;44.018;10.144;2023-02-01T06:02:11;17.50;;;11.77;;
75885;SDS011;64561;44.018;10.144;2023-02-01T06:04:38;19.27;;;10.43;;
75885;SDS011;64561;44.018;10.144;2023-02-01T06:07:06;22.60;;;11.25;;
75885;SDS011;64561;44.018;10.144;2023-02-01T06:09:34;19.52;;;11.52;;
75885;SDS011;64561;44.018;10.144;2023-02-01T06:12:02;20.30;;;11.07;;
75885;SDS011;64561;44.018;10.144;2023-02-01T06:14:30;25.30;;;12.07;;
75885;SDS011;64561;44.018;10.144;2023-02-01T06:16:56;21.27;;;12.00;;
75885;SDS011;64561;44.018;10.144;2023-02-01T06:19:23;19.10;;;10.85;;
75885;SDS011;64561;44.018;10.144;2023-02-01T06:21:50;18.83;;;11.07;;
75885;SDS011;64561;44.018;10.144;2023-02-01T06:24:17;22.02;;;11.02;;
75885;SDS011;64561;44.018;10.144;2023-02-01T06:26:44;22.60;;;12.45;;
75885;SDS011;64561;44.018;10.144;2023-02-01T06:29:11;21.98;;;12.35;;
75885;SDS011;64561;44.018;10.144;2023-02-01T06:31:38;13.57;;;9.02;;
75885;SDS011;64561;44.018;10.144;2023-02-01T06:34:06;17.95;;;9.00;;
75885;SDS011;64561;44.018;10.144;2023-02-01T06:36:32;18.70;;;10.82;;
75885;SDS011;64561;44.018;10.144;2023-02-01T06:38:59;28.40;;;11.07;;
75885;SDS011;64561;44.018;10.144;2023-02-01T06:41:26;15.50;;;8.85;;
75885;SDS011;64561;44.018;10.144;2023-02-01T06:43:55;15.80;;;8.85;;
75885;SDS011;64561;44.018;10.144;2023-02-01T06:46:22;18.38;;;9.20;;
75885;SDS011;64561;44.018;10.144;2023-02-01T06:48:48;23.25;;;10.25;;
75885;SDS011;64561;44.018;10.144;2023-02-01T06:51:26;17.85;;;9.60;;
75885;SDS011;64561;44.018;10.144;2023-02-01T06:53:55;17.70;;;9.55;;
75885;SDS011;64561;44.018;10.144;2023-02-01T06:56:22;13.65;;;7.95;;
75885;SDS011;64561;44.018;10.144;2023-02-01T06:58:48;13.00;;;7.38;;
75885;SDS011;64561;44.018;10.144;2023-02-01T07:01:16;12.93;;;7.38;;
75885;SDS011;64561;44.018;10.144;2023-02-01T07:03:46;15.82;;;9.32;;
75885;SDS011;64561;44.018;10.144;2023-02-01T07:06:15;17.20;;;9.55;;
75885;SDS011;64561;44.018;10.144;2023-02-01T07:08:41;21.42;;;11.75;;
75885;SDS011;64561;44.018;10.144;2023-02-01T07:11:10;17.42;;;8.90;;
75885;SDS011;64561;44.018;10.144;2023-02-01T07:13:38;17.20;;;9.40;;
75885;SDS011;64561;44.018;10.144;2023-02-01T07:16:06;20.58;;;9.45;;
75885;SDS011;64561;44.018;10.144;2023-02-01T07:18:36;19.02;;;10.02;;
75885;SDS011;64561;44.018;10.144;2023-02-01T07:21:03;21.17;;;10.88;;
75885;SDS011;64561;44.018;10.144;2023-02-01T07:23:30;18.58;;;10.43;;
75885;SDS011;64561;44.018;10.144;2023-02-01T07:25:58;21.48;;;10.25;;
75885;SDS011;64561;44.018;10.144;2023-02-01T07:28:28;16.67;;;10.90;;
75885;SDS011;64561;44.018;10.144;2023-02-01T07:33:55;30.75;;;11.20;;
75885;SDS011;64561;44.018;10.144;2023-02-01T07:36:22;23.02;;;11.43;;
75885;SDS011;64561;44.018;10.144;2023-02-01T07:38:49;20.90;;;11.00;;
75885;SDS011;64561;44.018;10.144;2023-02-01T07:41:19;22.13;;;11.82;;
75885;SDS011;64561;44.018;10.144;2023-02-01T07:43:46;29.50;;;13.57;;
75885;SDS011;64561;44.018;10.144;2023-02-01T07:46:13;23.25;;;11.30;;
75885;SDS011;64561;44.018;10.144;2023-02-01T07:48:44;19.98;;;12.40;;
75885;SDS011;64561;44.018;10.144;2023-02-01T07:51:12;20.85;;;12.27;;
75885;SDS011;64561;44.018;10.144;2023-02-01T07:53:40;21.88;;;11.98;;
75885;SDS011;64561;44.018;10.144;2023-02-01T07:56:11;20.00;;;12.98;;
75885;SDS011;64561;44.018;10.144;2023-02-01T07:58:46;17.17;;;11.23;;
75885;SDS011;64561;44.018;10.144;2023-02-01T08:01:18;21.45;;;13.00;;
75885;SDS011;64561;44.018;10.144;2023-02-01T08:03:48;20.00;;;10.45;;
75885;SDS011;64561;44.018;10.144;2023-02-01T08:06:16;21.38;;;13.77;;
75885;SDS011;64561;44.018;10.144;2023-02-01T08:08:46;26.98;;;14.50;;
75885;SDS011;64561;44.018;10.144;2023-02-01T08:11:13;28.08;;;16.55;;
75885;SDS011;64561;44.018;10.144;2023-02-01T08:13:41;29.23;;;15.18;;
75885;SDS011;64561;44.018;10.144;2023-02-01T08:16:09;24.27;;;12.55;;
75885;SDS011;64561;44.018;10.144;2023-02-01T08:18:38;37.88;;;17.38;;
75885;SDS011;64561;44.018;10.144;2023-02-01T08:21:13;26.45;;;16.13;;
75885;SDS011;64561;44.018;10.144;2023-02-01T08:23:41;26.48;;;13.77;;
75885;SDS011;64561;44.018;10.144;2023-02-01T08:26:13;32.80;;;13.07;;
75885;SDS011;64561;44.018;10.144;2023-02-01T08:31:16;18.90;;;10.68;;
75885;SDS011;64561;44.018;10.144;2023-02-01T08:33:50;18.65;;;10.52;;
75885;SDS011;64561;44.018;10.144;2023-02-01T08:36:19;19.20;;;11.18;;
75885;SDS011;64561;44.018;10.144;2023-02-01T08:38:46;17.17;;;11.27;;
75885;SDS011;64561;44.018;10.144;2023-02-01T08:41:14;20.52;;;12.85;;
75885;SDS011;64561;44.018;10.144;2023-02-01T08:43:42;17.88;;;10.93;;
75885;SDS011;64561;44.018;10.144;2023-02-01T08:46:10;20.70;;;12.10;;
75885;SDS011;64561;44.018;10.144;2023-02-01T08:48:38;21.35;;;11.90;;
75885;SDS011;64561;44.018;10.144;2023-02-01T08:51:09;16.92;;;10.57;;
75885;SDS011;64561;44.018;10.144;2023-02-01T08:53:38;16.13;;;10.63;;
75885;SDS011;64561;44.018;10.144;2023-02-01T08:56:07;17.92;;;11.15;;
75885;SDS011;64561;44.018;10.144;2023-02-01T08:58:35;20.38;;;11.07;;
75885;SDS011;64561;44.018;10.144;2023-02-01T09:01:06;18.85;;;12.13;;
75885;SDS011;64561;44.018;10.144;2023-02-01T09:03:35;24.25;;;14.65;;
75885;SDS011;64561;44.018;10.144;2023-02-01T09:06:02;22.98;;;13.88;;
75885;SDS011;64561;44.018;10.144;2023-02-01T09:08:30;26.65;;;14.93;;
75885;SDS011;64561;44.018;10.144;2023-02-01T09:10:58;29.15;;;14.98;;
75885;SDS011;64561;44.018;10.144;2023-02-01T09:13:29;48.03;;;22.23;;
75885;SDS011;64561;44.018;10.144;2023-02-01T09:15:56;44.20;;;20.30;;
75885;SDS011;64561;44.018;10.144;2023-02-01T09:18:23;25.33;;;14.75;;
75885;SDS011;64561;44.018;10.144;2023-02-01T09:20:50;28.50;;;16.92;;
75885;SDS011;64561;44.018;10.144;2023-02-01T09:23:17;34.85;;;18.98;;
75885;SDS011;64561;44.018;10.144;2023-02-01T09:25:46;28.80;;;16.05;;
75885;SDS011;64561;44.018;10.144;2023-02-01T09:28:19;23.30;;;14.48;;
75885;SDS011;64561;44.018;10.144;2023-02-01T09:30:46;21.92;;;12.30;;
75885;SDS011;64561;44.018;10.144;2023-02-01T09:33:13;23.15;;;12.15;;
75885;SDS011;64561;44.018;10.144;2023-02-01T09:35:40;19.23;;;11.63;;
75885;SDS011;64561;44.018;10.144;2023-02-01T09:38:07;21.85;;;12.55;;
75885;SDS011;64561;44.018;10.144;2023-02-01T09:40:34;27.92;;;16.30;;
75885;SDS011;64561;44.018;10.144;2023-02-01T09:43:14;26.65;;;15.00;;
75885;SDS011;64561;44.018;10.144;2023-02-01T09:48:31;31.42;;;17.38;;
75885;SDS011;64561;44.018;10.144;2023-02-01T09:51:02;27.60;;;17.67;;
75885;SDS011;64561;44.018;10.144;2023-02-01T09:53:33;30.17;;;19.00;;
75885;SDS011;64561;44.018;10.144;2023-02-01T09:56:05;32.60;;;20.27;;
75885;SDS011;64561;44.018;10.144;2023-02-01T09:58:42;34.65;;;22.55;;
75885;SDS011;64561;44.018;10.144;2023-02-01T10:01:21;32.05;;;19.88;;
75885;SDS011;64561;44.018;10.144;2023-02-01T10:03:50;30.35;;;17.17;;
75885;SDS011;64561;44.018;10.144;2023-02-01T10:23:20;28.05;;;15.82;;
75885;SDS011;64561;44.018;10.144;2023-02-01T10:28:56;32.70;;;18.52;;
75885;SDS011;64561;44.018;10.144;2023-02-01T10:31:25;35.95;;;19.58;;
75885;SDS011;64561;44.018;10.144;2023-02-01T10:33:56;24.83;;;15.70;;
75885;SDS011;64561;44.018;10.144;2023-02-01T10:36:32;27.30;;;16.58;;
75885;SDS011;64561;44.018;10.144;2023-02-01T10:39:03;29.38;;;17.50;;
75885;SDS011;64561;44.018;10.144;2023-02-01T10:41:38;25.33;;;16.02;;
75885;SDS011;64561;44.018;10.144;2023-02-01T10:44:25;26.27;;;14.82;;
75885;SDS011;64561;44.018;10.144;2023-02-01T10:46:55;30.42;;;17.33;;
75885;SDS011;64561;44.018;10.144;2023-02-01T10:51:58;36.90;;;23.08;;
75885;SDS011;64561;44.018;10.144;2023-02-01T10:54:34;37.67;;;23.65;;
75885;SDS011;64561;44.018;10.144;2023-02-01T10:57:07;32.85;;;18.85;;
75885;SDS011;64561;44.018;10.144;2023-02-01T10:59:35;30.10;;;18.27;;
75885;SDS011;64561;44.018;10.144;2023-02-01T11:02:15;33.53;;;19.48;;
75885;SDS011;64561;44.018;10.144;2023-02-01T11:04:48;32.78;;;19.27;;
75885;SDS011;64561;44.018;10.144;2023-02-01T11:09:53;47.75;;;27.88;;
75885;SDS011;64561;44.018;10.144;2023-02-01T11:22:58;24.77;;;14.45;;
75885;SDS011;64561;44.018;10.144;2023-02-01T11:25:26;23.35;;;12.85;;
75885;SDS011;64561;44.018;10.144;2023-02-01T11:27:54;15.05;;;9.00;;
75885;SDS011;64561;44.018;10.144;2023-02-01T11:30:33;19.02;;;10.73;;
75885;SDS011;64561;44.018;10.144;2023-02-01T11:33:01;15.27;;;9.77;;
75885;SDS011;64561;44.018;10.144;2023-02-01T11:35:32;11.27;;;5.72;;
75885;SDS011;64561;44.018;10.144;2023-02-01T11:38:11;14.60;;;4.88;;
75885;SDS011;64561;44.018;10.144;2023-02-01T11:40:44;9.82;;;4.15;;
75885;SDS011;64561;44.018;10.144;2023-02-01T11:45:55;10.70;;;4.68;;
75885;SDS011;64561;44.018;10.144;2023-02-01T11:48:27;15.07;;;3.85;;
75885;SDS011;64561;44.018;10.144;2023-02-01T11:53:38;17.30;;;7.63;;
75885;SDS011;64561;44.018;10.144;2023-02-01T12:04:55;12.13;;;4.75;;
75885;SDS011;64561;44.018;10.144;2023-02-01T12:21:24;10.88;;;5.03;;
75885;SDS011;64561;44.018;10.144;2023-02-01T12:34:57;9.90;;;4.15;;
75885;SDS011;64561;44.018;10.144;2023-02-01T12:37:55;12.80;;;3.78;;
75885;SDS011;64561;44.018;10.144;2023-02-01T12:40:50;7.32;;;2.60;;
75885;SDS011;64561;44.018;10.144;2023-02-01T12:49:10;7.63;;;3.08;;
75885;SDS011;64561;44.018;10.144;2023-02-01T12:51:40;9.32;;;3.13;;
75885;SDS011;64561;44.018;10.144;2023-02-01T12:59:33;7.28;;;2.25;;
75885;SDS011;64561;44.018;10.144;2023-02-01T13:07:59;14.52;;;6.45;;
75885;SDS011;64561;44.018;10.144;2023-02-01T13:10:36;12.30;;;5.72;;
75885;SDS011;64561;44.018;10.144;2023-02-01T13:15:48;15.93;;;6.53;;
75885;SDS011;64561;44.018;10.144;2023-02-01T13:18:22;12.15;;;7.15;;
75885;SDS011;64561;44.018;10.144;2023-02-01T13:23:29;18.40;;;8.00;;
75885;SDS011;64561;44.018;10.144;2023-02-01T13:26:00;15.00;;;8.80;;
75885;SDS011;64561;44.018;10.144;2023-02-01T13:31:39;10.77;;;7.15;;
75885;SDS011;64561;44.018;10.144;2023-02-01T13:45:23;18.65;;;9.48;;
75885;SDS011;64561;44.018;10.144;2023-02-01T13:47:54;22.85;;;11.18;;
75885;SDS011;64561;44.018;10.144;2023-02-01T13:55:40;11.50;;;7.00;;
75885;SDS011;64561;44.018;10.144;2023-02-01T13:58:13;25.08;;;13.10;;
75885;SDS011;64561;44.018;10.144;2023-02-01T14:00:42;24.00;;;13.07;;
75885;SDS011;64561;44.018;10.144;2023-02-01T14:03:11;19.27;;;12.20;;
75885;SDS011;64561;44.018;10.144;2023-02-01T14:08:14;14.35;;;8.27;;
75885;SDS011;64561;44.018;10.144;2023-02-01T14:29:02;22.00;;;12.20;;
75885;SDS011;64561;44.018;10.144;2023-02-01T14:31:53;17.17;;;10.45;;
75885;SDS011;64561;44.018;10.144;2023-02-01T14:37:05;14.98;;;9.10;;
75885;SDS011;64561;44.018;10.144;2023-02-01T14:47:46;14.68;;;7.45;;
75885;SDS011;64561;44.018;10.144;2023-02-01T14:52:47;11.55;;;5.90;;
75885;SDS011;64561;44.018;10.144;2023-02-01T14:55:20;9.35;;;6.30;;
75885;SDS011;64561;44.018;10.144;2023-02-01T14:57:53;13.20;;;8.15;;
75885;SDS011;64561;44.018;10.144;2023-02-01T15:00:25;11.52;;;6.82;;
75885;SDS011;64561;44.018;10.144;2023-02-01T15:02:56;14.70;;;7.50;;
75885;SDS011;64561;44.018;10.144;2023-02-01T15:05:50;26.40;;;13.27;;
75885;SDS011;64561;44.018;10.144;2023-02-01T15:08:27;32.97;;;17.45;;
75885;SDS011;64561;44.018;10.144;2023-02-01T15:10:56;45.47;;;24.48;;
75885;SDS011;64561;44.018;10.144;2023-02-01T15:13:28;52.08;;;27.02;;
75885;SDS011;64561;44.018;10.144;2023-02-01T15:16:05;38.60;;;16.95;;
75885;SDS011;64561;44.018;10.144;2023-02-01T15:18:40;26.67;;;14.77;;
75885;SDS011;64561;44.018;10.144;2023-02-01T15:21:20;24.77;;;12.98;;
75885;SDS011;64561;44.018;10.144;2023-02-01T15:24:09;22.92;;;12.77;;
75885;SDS011;64561;44.018;10.144;2023-02-01T15:26:37;43.58;;;24.60;;
75885;SDS011;64561;44.018;10.144;2023-02-01T15:29:04;40.47;;;22.63;;
75885;SDS011;64561;44.018;10.144;2023-02-01T15:31:36;35.70;;;19.02;;
75885;SDS011;64561;44.018;10.144;2023-02-01T15:34:05;30.58;;;16.80;;
75885;SDS011;64561;44.018;10.144;2023-02-01T15:36:32;26.77;;;15.57;;
75885;SDS011;64561;44.018;10.144;2023-02-01T15:41:55;26.08;;;14.95;;
75885;SDS011;64561;44.018;10.144;2023-02-01T15:46:58;31.75;;;14.82;;
75885;SDS011;64561;44.018;10.144;2023-02-01T15:49:38;27.08;;;14.00;;
75885;SDS011;64561;44.018;10.144;2023-02-01T15:55:08;26.13;;;14.35;;
75885;SDS011;64561;44.018;10.144;2023-02-01T15:57:44;28.63;;;17.33;;
75885;SDS011;64561;44.018;10.144;2023-02-01T16:00:24;31.73;;;16.83;;
75885;SDS011;64561;44.018;10.144;2023-02-01T16:02:54;34.25;;;16.88;;
75885;SDS011;64561;44.018;10.144;2023-02-01T16:08:10;43.17;;;21.25;;
75885;SDS011;64561;44.018;10.144;2023-02-01T16:10:43;44.67;;;20.30;;
75885;SDS011;64561;44.018;10.144;2023-02-01T16:13:12;43.05;;;19.75;;
75885;SDS011;64561;44.018;10.144;2023-02-01T16:15:41;41.80;;;19.92;;
75885;SDS011;64561;44.018;10.144;2023-02-01T16:18:08;40.92;;;22.55;;
75885;SDS011;64561;44.018;10.144;2023-02-01T16:20:36;41.13;;;19.98;;
75885;SDS011;64561;44.018;10.144;2023-02-01T16:23:05;41.38;;;21.10;;
75885;SDS011;64561;44.018;10.144;2023-02-01T16:25:33;34.17;;;17.92;;
75885;SDS011;64561;44.018;10.144;2023-02-01T16:28:01;29.85;;;16.63;;
75885;SDS011;64561;44.018;10.144;2023-02-01T16:30:27;30.38;;;17.67;;
75885;SDS011;64561;44.018;10.144;2023-02-01T16:32:55;39.33;;;18.83;;
75885;SDS011;64561;44.018;10.144;2023-02-01T16:35:31;34.40;;;20.80;;
75885;SDS011;64561;44.018;10.144;2023-02-01T16:38:12;41.10;;;21.10;;
75885;SDS011;64561;44.018;10.144;2023-02-01T16:40:40;40.03;;;22.20;;
75885;SDS011;64561;44.018;10.144;2023-02-01T16:43:22;48.70;;;26.17;;
75885;SDS011;64561;44.018;10.144;2023-02-01T16:45:51;45.92;;;27.88;;
75885;SDS011;64561;44.018;10.144;2023-02-01T16:48:26;40.92;;;26.13;;
75885;SDS011;64561;44.018;10.144;2023-02-01T16:51:01;32.55;;;19.85;;
75885;SDS011;64561;44.018;10.144;2023-02-01T16:53:34;30.45;;;17.65;;
75885;SDS011;64561;44.018;10.144;2023-02-01T16:56:20;36.33;;;17.90;;
75885;SDS011;64561;44.018;10.144;2023-02-01T16:59:07;26.65;;;15.32;;
75885;SDS011;64561;44.018;10.144;2023-02-01T17:01:35;30.08;;;18.35;;
75885;SDS011;64561;44.018;10.144;2023-02-01T17:04:04;30.63;;;17.83;;
75885;SDS011;64561;44.018;10.144;2023-02-01T17:06:31;32.28;;;20.33;;
75885;SDS011;64561;44.018;10.144;2023-02-01T17:09:03;28.40;;;17.42;;
75885;SDS011;64561;44.018;10.144;2023-02-01T17:11:30;26.27;;;15.05;;
75885;SDS011;64561;44.018;10.144;2023-02-01T17:14:32;27.48;;;16.95;;
75885;SDS011;64561;44.018;10.144;2023-02-01T17:16:51;25.38;;;14.52;;
75885;SDS011;64561;44.018;10.144;2023-02-01T17:19:20;26.38;;;15.98;;
75885;SDS011;64561;44.018;10.144;2023-02-01T17:21:52;23.13;;;12.63;;
75885;SDS011;64561;44.018;10.144;2023-02-01T17:24:23;23.55;;;13.68;;
75885;SDS011;64561;44.018;10.144;2023-02-01T17:27:01;20.60;;;12.15;;
75885;SDS011;64561;44.018;10.144;2023-02-01T17:29:29;23.23;;;13.52;;
75885;SDS011;64561;44.018;10.144;2023-02-01T17:31:56;24.30;;;13.65;;
75885;SDS011;64561;44.018;10.144;2023-02-01T17:34:25;18.30;;;10.35;;
75885;SDS011;64561;44.018;10.144;2023-02-01T17:36:52;19.67;;;11.27;;
75885;SDS011;64561;44.018;10.144;2023-02-01T17:39:19;17.55;;;9.32;;
75885;SDS011;64561;44.018;10.144;2023-02-01T17:42:08;23.63;;;11.85;;
75885;SDS011;64561;44.018;10.144;2023-02-01T17:44:37;17.13;;;9.77;;
75885;SDS011;64561;44.018;10.144;2023-02-01T17:47:04;23.88;;;11.27;;
75885;SDS011;64561;44.018;10.144;2023-02-01T17:49:30;16.83;;;9.40;;
75885;SDS011;64561;44.018;10.144;2023-02-01T17:52:00;18.98;;;9.50;;
75885;SDS011;64561;44.018;10.144;2023-02-01T17:54:27;18.55;;;10.10;;
75885;SDS011;64561;44.018;10.144;2023-02-01T17:56:54;22.23;;;10.48;;
75885;SDS011;64561;44.018;10.144;2023-02-01T17:59:21;21.10;;;13.23;;
75885;SDS011;64561;44.018;10.144;2023-02-01T18:01:47;23.85;;;13.38;;
75885;SDS011;64561;44.018;10.144;2023-02-01T18:04:15;30.75;;;18.55;;